createdAt,value
2022-08-09T00:01:42.316Z,2.98
2022-08-09T00:06:49.479Z,2.97
2022-08-09T00:11:58.024Z,2.98
2022-08-09T00:17:11.281Z,2.98
2022-08-09T00:22:19.292Z,2.98
2022-08-09T00:27:33.973Z,2.98
2022-08-09T00:32:41.161Z,2.97
2022-08-09T00:37:48.987Z,2.98
2022-08-09T00:42:56.724Z,2.98
2022-08-09T00:48:04.089Z,2.98
2022-08-09T00:53:11.254Z,2.97
2022-08-09T00:58:19.102Z,2.97
2022-08-09T01:03:26.619Z,2.97
2022-08-09T01:08:33.498Z,2.97
2022-08-09T01:13:40.725Z,2.98
2022-08-09T01:18:48.523Z,2.97
2022-08-09T01:23:56.222Z,2.97
2022-08-09T01:29:12.544Z,2.97
2022-08-09T01:34:19.734Z,2.97
2022-08-09T01:39:27.646Z,2.98
2022-08-09T01:44:34.802Z,2.97
2022-08-09T01:49:42.569Z,2.97
2022-08-09T01:54:49.765Z,2.96
2022-08-09T02:00:05.274Z,2.98
2022-08-09T02:05:11.898Z,2.97
2022-08-09T02:10:18.880Z,2.97
2022-08-09T02:15:26.528Z,2.96
2022-08-09T02:20:33.489Z,2.97
2022-08-09T02:25:41.314Z,2.97
2022-08-09T02:30:48.554Z,2.96
2022-08-09T02:35:56.419Z,2.97
2022-08-09T02:41:04.288Z,2.96
2022-08-09T02:46:12.472Z,2.98
2022-08-09T02:51:27.581Z,2.97
2022-08-09T02:56:35.685Z,2.97
2022-08-09T03:01:43.688Z,2.97
2022-08-09T03:06:51.125Z,2.97
2022-08-09T03:12:04.061Z,2.97
2022-08-09T03:17:11.935Z,2.97
2022-08-09T03:22:20.690Z,2.97
2022-08-09T03:28:08.532Z,2.96
2022-08-09T03:33:16.669Z,2.98
2022-08-09T03:38:24.599Z,2.97
2022-08-09T03:43:39.097Z,2.97
2022-08-09T03:48:46.673Z,2.96
2022-08-09T03:53:53.856Z,2.97
2022-08-09T03:59:02.435Z,2.97
2022-08-09T04:04:10.962Z,2.97
2022-08-09T04:09:19.052Z,2.97
2022-08-09T04:14:26.934Z,2.96
2022-08-09T04:19:34.871Z,2.96
2022-08-09T04:24:42.505Z,2.98
2022-08-09T04:29:49.903Z,2.98
2022-08-09T04:34:58.138Z,2.98
2022-08-09T04:40:05.363Z,2.98
2022-08-09T04:45:13.109Z,2.99
2022-08-09T04:50:21.406Z,2.98
2022-08-09T04:55:29.426Z,3.0
2022-08-09T05:00:38.478Z,3.0
2022-08-09T05:05:46.732Z,2.99
2022-08-09T05:10:53.656Z,3.0
2022-08-09T05:16:02.002Z,3.01
2022-08-09T05:21:10.126Z,3.0
2022-08-09T05:26:18.976Z,3.01
2022-08-09T05:31:26.929Z,3.0
2022-08-09T05:36:34.130Z,3.0
2022-08-09T05:41:41.340Z,3.0
2022-08-09T05:46:49.174Z,3.0
2022-08-09T05:51:58.054Z,3.01
2022-08-09T05:57:05.668Z,3.01
2022-08-09T06:02:14.081Z,3.0
2022-08-09T06:07:21.947Z,3.0
2022-08-09T06:12:31.051Z,3.0
2022-08-09T06:17:38.808Z,3.0
2022-08-09T06:22:47.194Z,3.0
2022-08-09T06:27:54.457Z,3.01
2022-08-09T06:33:03.289Z,3.01
2022-08-09T06:38:10.933Z,3.0
2022-08-09T06:43:17.979Z,3.01
2022-08-09T06:48:25.176Z,3.02
2022-08-09T06:53:32.645Z,3.02
2022-08-09T06:58:39.889Z,3.02
2022-08-09T07:03:47.415Z,3.02
2022-08-09T07:08:54.910Z,3.01
2022-08-09T07:14:02.539Z,3.01
2022-08-09T07:19:09.031Z,3.01
2022-08-09T07:24:16.854Z,3.01
2022-08-09T07:29:24.405Z,3.01
2022-08-09T07:34:31.033Z,3.01
2022-08-09T07:39:39.848Z,3.02
2022-08-09T07:44:48.731Z,3.02
2022-08-09T07:49:56.055Z,3.02
2022-08-09T07:55:03.347Z,3.02
2022-08-09T08:00:11.733Z,3.02
2022-08-09T08:05:19.623Z,3.02
2022-08-09T08:10:32.680Z,3.03
2022-08-09T08:15:40.302Z,3.02
2022-08-09T08:20:47.775Z,3.01
2022-08-09T08:25:55.431Z,3.01
2022-08-09T08:31:02.638Z,3.02
2022-08-09T08:36:10.460Z,3.02
2022-08-09T08:41:18.025Z,3.02
2022-08-09T08:46:26.017Z,3.02
2022-08-09T08:51:34.616Z,3.02
2022-08-09T08:56:41.184Z,3.01
2022-08-09T09:01:49.529Z,3.02
2022-08-09T09:06:58.984Z,3.02
2022-08-09T09:12:05.652Z,3.01
2022-08-09T09:17:12.538Z,3.02
2022-08-09T09:22:20.643Z,3.02
2022-08-09T09:27:27.573Z,3.02
2022-08-09T09:32:36.473Z,3.01
2022-08-09T09:37:43.212Z,3.02
2022-08-09T09:42:51.185Z,3.03
2022-08-09T09:47:58.807Z,3.02
2022-08-09T09:53:07.255Z,3.03
2022-08-09T09:58:14.162Z,3.01
2022-08-09T10:03:21.218Z,3.02
2022-08-09T10:08:29.514Z,3.02
2022-08-09T10:13:36.854Z,3.01
2022-08-09T10:18:44.701Z,3.01
2022-08-09T10:23:52.922Z,3.03
2022-08-09T10:29:00.548Z,3.01
2022-08-09T10:34:06.936Z,3.02
2022-08-09T10:39:14.950Z,3.02
2022-08-09T10:44:23.261Z,3.03
2022-08-09T10:49:31.048Z,3.02
2022-08-09T10:54:37.012Z,3.01
2022-08-09T10:59:44.897Z,3.02
2022-08-09T11:04:51.516Z,3.02
2022-08-09T11:09:59.589Z,3.02
2022-08-09T11:15:06.568Z,3.02
2022-08-09T11:20:13.631Z,3.02
2022-08-09T11:25:21.240Z,3.02
2022-08-09T11:30:33.855Z,3.02
2022-08-09T11:35:40.027Z,3.02
2022-08-09T11:40:46.943Z,3.02
2022-08-09T11:45:54.180Z,3.01
2022-08-09T11:51:01.975Z,3.02
2022-08-09T11:56:09.964Z,3.01
2022-08-09T12:01:17.526Z,3.02
2022-08-09T12:06:25.481Z,3.02
2022-08-09T12:11:34.066Z,3.03
2022-08-09T12:16:41.049Z,3.03
2022-08-09T12:21:48.553Z,3.01
2022-08-09T12:26:55.584Z,3.02
2022-08-09T12:32:03.458Z,3.02
2022-08-09T12:37:10.622Z,3.02
2022-08-09T12:42:18.743Z,3.03
2022-08-09T12:47:27.690Z,3.02
2022-08-09T12:52:34.941Z,3.02
2022-08-09T12:57:42.091Z,3.02
2022-08-09T13:02:49.214Z,3.02
2022-08-09T13:07:57.522Z,3.02
2022-08-09T13:13:04.815Z,3.01
2022-08-09T13:18:13.092Z,3.02
2022-08-09T13:23:21.560Z,3.03
2022-08-09T13:28:28.377Z,3.03
2022-08-09T13:33:35.584Z,3.03
2022-08-09T13:38:43.634Z,3.02
2022-08-09T13:43:52.037Z,3.02
2022-08-09T13:48:58.678Z,3.02
2022-08-09T13:54:07.579Z,3.02
2022-08-09T13:59:15.619Z,3.03
2022-08-09T14:04:22.633Z,3.03
2022-08-09T14:09:31.119Z,3.02
2022-08-09T14:14:40.578Z,3.02
2022-08-09T14:19:48.057Z,3.03
2022-08-09T14:24:56.472Z,3.04
2022-08-09T14:30:04.137Z,3.03
2022-08-09T14:35:12.724Z,3.02
2022-08-09T14:40:19.498Z,3.02
2022-08-09T14:45:26.358Z,3.02
2022-08-09T14:50:34.961Z,3.02
2022-08-09T14:55:41.825Z,3.02
2022-08-09T15:00:49.027Z,3.02
2022-08-09T15:05:57.004Z,3.01
2022-08-09T15:11:05.193Z,3.02
2022-08-09T15:16:20.178Z,3.02
2022-08-09T15:21:29.547Z,3.02
2022-08-09T15:26:38.152Z,3.02
2022-08-09T15:31:46.567Z,3.01
2022-08-09T15:36:54.957Z,3.03
2022-08-09T15:42:01.472Z,3.03
2022-08-09T15:47:09.141Z,3.02
2022-08-09T15:52:17.375Z,3.02
2022-08-09T15:57:25.335Z,3.03
2022-08-09T16:02:32.700Z,3.02
2022-08-09T16:07:40.380Z,3.02
2022-08-09T16:12:48.442Z,3.02
2022-08-09T16:17:56.631Z,3.02
2022-08-09T16:23:04.473Z,3.01
2022-08-09T16:28:11.736Z,3.01
2022-08-09T16:33:19.308Z,3.01
2022-08-09T16:38:25.992Z,3.02
2022-08-09T16:43:32.697Z,3.02
2022-08-09T16:48:39.632Z,3.03
2022-08-09T16:53:48.046Z,3.03
2022-08-09T16:58:55.214Z,3.02
2022-08-09T17:04:02.380Z,3.02
2022-08-09T17:09:08.696Z,3.02
2022-08-09T17:14:16.649Z,3.02
2022-08-09T17:19:23.991Z,3.02
2022-08-09T17:24:30.299Z,3.02
2022-08-09T17:29:39.285Z,3.02
2022-08-09T17:34:47.432Z,3.01
2022-08-09T17:39:55.820Z,3.02
2022-08-09T17:45:03.796Z,3.02
2022-08-09T17:50:11.430Z,3.02
2022-08-09T17:55:20.056Z,3.02
2022-08-09T18:00:27.194Z,3.01
2022-08-09T18:05:35.434Z,3.02
2022-08-09T18:10:43.800Z,3.01
2022-08-09T18:15:51.258Z,3.02
2022-08-09T18:20:58.813Z,3.01
2022-08-09T18:26:06.647Z,3.01
2022-08-09T18:31:14.182Z,3.02
2022-08-09T18:36:23.129Z,3.02
2022-08-09T18:41:31.008Z,3.01
2022-08-09T18:46:37.691Z,3.02
2022-08-09T18:51:44.527Z,3.01
2022-08-09T18:56:51.767Z,3.02
2022-08-09T19:01:59.284Z,3.01
2022-08-09T19:07:07.667Z,3.01
2022-08-09T19:12:15.115Z,3.01
2022-08-09T19:17:23.283Z,3.0
2022-08-09T19:22:31.741Z,3.01
2022-08-09T19:27:39.198Z,3.0
2022-08-09T19:32:47.944Z,3.02
2022-08-09T19:37:56.016Z,3.0
2022-08-09T19:43:03.266Z,3.01
2022-08-09T19:48:10.863Z,3.01
2022-08-09T19:53:17.893Z,3.0
2022-08-09T19:58:25.017Z,3.0
2022-08-09T20:03:32.153Z,3.0
2022-08-09T20:08:39.947Z,3.01
2022-08-09T20:13:47.858Z,3.01
2022-08-09T20:18:54.937Z,3.0
2022-08-09T20:24:03.419Z,3.01
2022-08-09T20:29:09.970Z,3.01
2022-08-09T20:34:17.809Z,3.01
2022-08-09T20:39:26.174Z,3.0
2022-08-09T20:44:35.056Z,3.0
2022-08-09T20:49:42.294Z,3.01
2022-08-09T20:54:50.323Z,3.0
2022-08-09T21:00:00.199Z,3.0
2022-08-09T21:05:09.214Z,3.0
2022-08-09T21:10:17.681Z,2.99
2022-08-09T21:15:26.162Z,3.0
2022-08-09T21:20:33.483Z,3.0
2022-08-09T21:25:41.363Z,2.99
2022-08-09T21:30:49.503Z,3.0
2022-08-09T21:35:58.299Z,3.0
2022-08-09T21:41:06.160Z,3.0
2022-08-09T21:46:13.334Z,3.0
2022-08-09T21:51:21.111Z,3.0
2022-08-09T21:56:31.486Z,3.0
2022-08-09T22:01:41.168Z,3.0
2022-08-09T22:06:48.564Z,2.99
2022-08-09T22:11:56.597Z,3.0
2022-08-09T22:17:05.289Z,3.0
2022-08-09T22:22:13.649Z,3.0
2022-08-09T22:27:22.001Z,2.98
2022-08-09T22:32:30.356Z,2.99
2022-08-09T22:37:38.204Z,3.0
2022-08-09T22:42:45.848Z,2.99
2022-08-09T22:47:54.975Z,2.99
2022-08-09T22:53:03.361Z,3.0
2022-08-09T22:58:11.749Z,2.98
2022-08-09T23:03:21.595Z,2.98
2022-08-09T23:08:30.093Z,2.99
2022-08-09T23:13:38.467Z,2.99
2022-08-09T23:18:46.588Z,2.99
2022-08-09T23:23:53.820Z,3.0
2022-08-09T23:29:03.441Z,2.99
2022-08-09T23:34:10.778Z,2.99
2022-08-09T23:39:19.792Z,3.0
2022-08-09T23:44:27.888Z,2.98
2022-08-09T23:49:34.932Z,2.98
2022-08-09T23:54:42.727Z,2.98
2022-08-09T23:59:50.922Z,2.98
